sensor_id;sensor_type;location;lat;lon;timestamp;P1;durP1;ratioP1;P2;durP2;ratioP2
8861;SDS011;4799;50.996;4.754;2024-01-11T00:01:59;35.60;;;27.00;;
8861;SDS011;4799;50.996;4.754;2024-01-11T00:04:25;32.40;;;25.97;;
8861;SDS011;4799;50.996;4.754;2024-01-11T00:06:51;31.80;;;24.97;;
8861;SDS011;4799;50.996;4.754;2024-01-11T00:09:17;34.93;;;26.07;;
8861;SDS011;4799;50.996;4.754;2024-01-11T00:11:42;32.17;;;26.10;;
8861;SDS011;4799;50.996;4.754;2024-01-11T00:14:08;33.70;;;26.40;;
8861;SDS011;4799;50.996;4.754;2024-01-11T00:16:34;31.37;;;26.03;;
8861;SDS011;4799;50.996;4.754;2024-01-11T00:18:59;31.73;;;25.13;;
8861;SDS011;4799;50.996;4.754;2024-01-11T00:21:25;32.97;;;26.23;;
8861;SDS011;4799;50.996;4.754;2024-01-11T00:23:51;30.10;;;25.30;;
8861;SDS011;4799;50.996;4.754;2024-01-11T00:26:17;35.17;;;26.50;;
8861;SDS011;4799;50.996;4.754;2024-01-11T00:28:42;34.33;;;26.00;;
8861;SDS011;4799;50.996;4.754;2024-01-11T00:31:08;31.03;;;25.23;;
8861;SDS011;4799;50.996;4.754;2024-01-11T00:33:34;33.43;;;25.73;;
8861;SDS011;4799;50.996;4.754;2024-01-11T00:36:00;32.00;;;25.23;;
8861;SDS011;4799;50.996;4.754;2024-01-11T00:38:25;32.57;;;25.97;;
8861;SDS011;4799;50.996;4.754;2024-01-11T00:40:51;31.90;;;25.80;;
8861;SDS011;4799;50.996;4.754;2024-01-11T00:43:17;34.10;;;27.30;;
8861;SDS011;4799;50.996;4.754;2024-01-11T00:45:43;32.37;;;26.03;;
8861;SDS011;4799;50.996;4.754;2024-01-11T00:48:11;34.27;;;27.37;;
8861;SDS011;4799;50.996;4.754;2024-01-11T00:50:37;32.90;;;25.30;;
8861;SDS011;4799;50.996;4.754;2024-01-11T00:53:03;33.33;;;26.87;;
8861;SDS011;4799;50.996;4.754;2024-01-11T00:55:29;32.27;;;26.30;;
8861;SDS011;4799;50.996;4.754;2024-01-11T00:57:55;35.67;;;26.77;;
8861;SDS011;4799;50.996;4.754;2024-01-11T01:00:20;35.37;;;26.80;;
8861;SDS011;4799;50.996;4.754;2024-01-11T01:02:46;31.67;;;25.53;;
8861;SDS011;4799;50.996;4.754;2024-01-11T01:05:12;31.00;;;25.53;;
8861;SDS011;4799;50.996;4.754;2024-01-11T01:07:37;33.43;;;26.17;;
8861;SDS011;4799;50.996;4.754;2024-01-11T01:10:03;34.50;;;26.10;;
8861;SDS011;4799;50.996;4.754;2024-01-11T01:12:29;31.67;;;25.87;;
8861;SDS011;4799;50.996;4.754;2024-01-11T01:14:55;34.00;;;26.73;;
8861;SDS011;4799;50.996;4.754;2024-01-11T01:17:24;31.70;;;25.50;;
8861;SDS011;4799;50.996;4.754;2024-01-11T01:19:49;32.83;;;25.60;;
8861;SDS011;4799;50.996;4.754;2024-01-11T01:22:15;32.73;;;27.07;;
8861;SDS011;4799;50.996;4.754;2024-01-11T01:24:41;31.77;;;26.23;;
8861;SDS011;4799;50.996;4.754;2024-01-11T01:27:06;34.10;;;27.07;;
8861;SDS011;4799;50.996;4.754;2024-01-11T01:29:32;33.17;;;27.33;;
8861;SDS011;4799;50.996;4.754;2024-01-11T01:31:58;35.77;;;29.40;;
8861;SDS011;4799;50.996;4.754;2024-01-11T01:34:23;36.33;;;29.37;;
8861;SDS011;4799;50.996;4.754;2024-01-11T01:36:49;34.63;;;27.83;;
8861;SDS011;4799;50.996;4.754;2024-01-11T01:39:15;35.03;;;28.37;;
8861;SDS011;4799;50.996;4.754;2024-01-11T01:41:41;34.93;;;27.33;;
8861;SDS011;4799;50.996;4.754;2024-01-11T01:44:06;32.57;;;26.73;;
8861;SDS011;4799;50.996;4.754;2024-01-11T01:46:34;35.47;;;27.20;;
8861;SDS011;4799;50.996;4.754;2024-01-11T01:49:00;32.80;;;27.70;;
8861;SDS011;4799;50.996;4.754;2024-01-11T01:51:28;31.30;;;25.73;;
8861;SDS011;4799;50.996;4.754;2024-01-11T01:53:55;34.97;;;26.43;;
8861;SDS011;4799;50.996;4.754;2024-01-11T01:56:22;31.03;;;26.63;;
8861;SDS011;4799;50.996;4.754;2024-01-11T01:58:51;35.60;;;27.17;;
8861;SDS011;4799;50.996;4.754;2024-01-11T02:01:21;33.60;;;26.03;;
8861;SDS011;4799;50.996;4.754;2024-01-11T02:03:54;34.93;;;26.10;;
8861;SDS011;4799;50.996;4.754;2024-01-11T02:06:21;32.10;;;26.70;;
8861;SDS011;4799;50.996;4.754;2024-01-11T02:08:49;34.53;;;26.37;;
8861;SDS011;4799;50.996;4.754;2024-01-11T02:11:19;31.17;;;24.73;;
8861;SDS011;4799;50.996;4.754;2024-01-11T02:13:46;32.53;;;25.83;;
8861;SDS011;4799;50.996;4.754;2024-01-11T02:16:13;33.33;;;25.60;;
8861;SDS011;4799;50.996;4.754;2024-01-11T02:18:38;34.67;;;26.23;;
8861;SDS011;4799;50.996;4.754;2024-01-11T02:21:06;34.90;;;27.83;;
8861;SDS011;4799;50.996;4.754;2024-01-11T02:23:35;34.43;;;26.97;;
8861;SDS011;4799;50.996;4.754;2024-01-11T02:26:12;35.40;;;27.90;;
8861;SDS011;4799;50.996;4.754;2024-01-11T02:28:42;33.20;;;27.70;;
8861;SDS011;4799;50.996;4.754;2024-01-11T02:31:09;35.77;;;28.17;;
8861;SDS011;4799;50.996;4.754;2024-01-11T02:33:37;35.13;;;28.03;;
8861;SDS011;4799;50.996;4.754;2024-01-11T02:36:04;31.23;;;27.67;;
8861;SDS011;4799;50.996;4.754;2024-01-11T02:38:31;34.50;;;28.07;;
8861;SDS011;4799;50.996;4.754;2024-01-11T02:40:59;36.40;;;27.93;;
8861;SDS011;4799;50.996;4.754;2024-01-11T02:43:25;36.90;;;28.80;;
8861;SDS011;4799;50.996;4.754;2024-01-11T02:45:54;35.07;;;29.33;;
8861;SDS011;4799;50.996;4.754;2024-01-11T02:48:21;38.67;;;30.07;;
8861;SDS011;4799;50.996;4.754;2024-01-11T02:50:47;35.30;;;29.03;;
8861;SDS011;4799;50.996;4.754;2024-01-11T02:53:14;35.27;;;28.40;;
8861;SDS011;4799;50.996;4.754;2024-01-11T02:55:39;34.87;;;28.83;;
8861;SDS011;4799;50.996;4.754;2024-01-11T02:58:05;33.97;;;28.53;;
8861;SDS011;4799;50.996;4.754;2024-01-11T03:00:31;35.73;;;29.60;;
8861;SDS011;4799;50.996;4.754;2024-01-11T03:02:56;33.53;;;27.90;;
8861;SDS011;4799;50.996;4.754;2024-01-11T03:05:22;35.80;;;28.37;;
8861;SDS011;4799;50.996;4.754;2024-01-11T03:07:48;37.67;;;30.30;;
8861;SDS011;4799;50.996;4.754;2024-01-11T03:10:13;34.40;;;28.77;;
8861;SDS011;4799;50.996;4.754;2024-01-11T03:12:39;36.17;;;28.73;;
8861;SDS011;4799;50.996;4.754;2024-01-11T03:15:05;34.00;;;27.27;;
8861;SDS011;4799;50.996;4.754;2024-01-11T03:17:32;34.83;;;28.33;;
8861;SDS011;4799;50.996;4.754;2024-01-11T03:19:59;32.53;;;26.93;;
8861;SDS011;4799;50.996;4.754;2024-01-11T03:22:24;33.10;;;26.90;;
8861;SDS011;4799;50.996;4.754;2024-01-11T03:24:51;34.63;;;27.93;;
8861;SDS011;4799;50.996;4.754;2024-01-11T03:27:16;35.57;;;29.27;;
8861;SDS011;4799;50.996;4.754;2024-01-11T03:29:43;35.67;;;29.53;;
8861;SDS011;4799;50.996;4.754;2024-01-11T03:32:09;36.57;;;28.93;;
8861;SDS011;4799;50.996;4.754;2024-01-11T03:34:37;35.20;;;29.30;;
8861;SDS011;4799;50.996;4.754;2024-01-11T03:37:03;34.47;;;27.67;;
8861;SDS011;4799;50.996;4.754;2024-01-11T03:39:29;38.83;;;31.40;;
8861;SDS011;4799;50.996;4.754;2024-01-11T03:41:54;33.17;;;27.33;;
8861;SDS011;4799;50.996;4.754;2024-01-11T03:44:20;35.90;;;28.93;;
8861;SDS011;4799;50.996;4.754;2024-01-11T03:46:46;36.03;;;28.53;;
8861;SDS011;4799;50.996;4.754;2024-01-11T03:49:12;36.33;;;29.80;;
8861;SDS011;4799;50.996;4.754;2024-01-11T03:51:37;35.47;;;29.33;;
8861;SDS011;4799;50.996;4.754;2024-01-11T03:54:03;36.17;;;30.67;;
8861;SDS011;4799;50.996;4.754;2024-01-11T03:56:29;35.37;;;28.97;;
8861;SDS011;4799;50.996;4.754;2024-01-11T03:58:55;34.77;;;28.10;;
8861;SDS011;4799;50.996;4.754;2024-01-11T04:01:21;36.87;;;29.00;;
8861;SDS011;4799;50.996;4.754;2024-01-11T04:03:46;33.33;;;28.00;;
8861;SDS011;4799;50.996;4.754;2024-01-11T04:06:19;39.33;;;29.57;;
8861;SDS011;4799;50.996;4.754;2024-01-11T04:08:46;34.80;;;28.40;;
8861;SDS011;4799;50.996;4.754;2024-01-11T04:11:12;34.67;;;28.37;;
8861;SDS011;4799;50.996;4.754;2024-01-11T04:13:38;34.80;;;28.53;;
8861;SDS011;4799;50.996;4.754;2024-01-11T04:16:07;37.53;;;30.37;;
8861;SDS011;4799;50.996;4.754;2024-01-11T04:18:33;35.53;;;29.57;;
8861;SDS011;4799;50.996;4.754;2024-01-11T04:20:59;33.40;;;28.57;;
8861;SDS011;4799;50.996;4.754;2024-01-11T04:23:25;34.13;;;28.80;;
8861;SDS011;4799;50.996;4.754;2024-01-11T04:25:51;35.40;;;29.07;;
8861;SDS011;4799;50.996;4.754;2024-01-11T04:28:17;35.03;;;28.93;;
8861;SDS011;4799;50.996;4.754;2024-01-11T04:30:43;33.50;;;28.83;;
8861;SDS011;4799;50.996;4.754;2024-01-11T04:33:09;35.37;;;28.93;;
8861;SDS011;4799;50.996;4.754;2024-01-11T04:35:35;34.40;;;28.97;;
8861;SDS011;4799;50.996;4.754;2024-01-11T04:38:01;36.40;;;29.53;;
8861;SDS011;4799;50.996;4.754;2024-01-11T04:40:27;37.13;;;30.67;;
8861;SDS011;4799;50.996;4.754;2024-01-11T04:42:53;38.67;;;31.67;;
8861;SDS011;4799;50.996;4.754;2024-01-11T04:45:19;36.87;;;30.77;;
8861;SDS011;4799;50.996;4.754;2024-01-11T04:47:45;37.60;;;31.47;;
8861;SDS011;4799;50.996;4.754;2024-01-11T04:50:10;39.13;;;31.57;;
8861;SDS011;4799;50.996;4.754;2024-01-11T04:52:36;38.53;;;30.37;;
8861;SDS011;4799;50.996;4.754;2024-01-11T04:55:02;38.90;;;31.80;;
8861;SDS011;4799;50.996;4.754;2024-01-11T04:57:28;40.73;;;31.53;;
8861;SDS011;4799;50.996;4.754;2024-01-11T04:59:54;42.40;;;31.93;;
8861;SDS011;4799;50.996;4.754;2024-01-11T05:02:22;39.20;;;31.63;;
8861;SDS011;4799;50.996;4.754;2024-01-11T05:04:48;38.83;;;32.13;;
8861;SDS011;4799;50.996;4.754;2024-01-11T05:07:14;38.63;;;32.20;;
8861;SDS011;4799;50.996;4.754;2024-01-11T05:09:40;42.90;;;33.40;;
8861;SDS011;4799;50.996;4.754;2024-01-11T05:12:05;42.07;;;33.13;;
8861;SDS011;4799;50.996;4.754;2024-01-11T05:14:31;40.73;;;32.93;;
8861;SDS011;4799;50.996;4.754;2024-01-11T05:16:57;41.03;;;33.13;;
8861;SDS011;4799;50.996;4.754;2024-01-11T05:19:23;39.67;;;32.50;;
8861;SDS011;4799;50.996;4.754;2024-01-11T05:21:49;43.53;;;33.43;;
8861;SDS011;4799;50.996;4.754;2024-01-11T05:24:14;40.77;;;33.03;;
8861;SDS011;4799;50.996;4.754;2024-01-11T05:26:40;42.83;;;34.27;;
8861;SDS011;4799;50.996;4.754;2024-01-11T05:29:06;39.93;;;32.53;;
8861;SDS011;4799;50.996;4.754;2024-01-11T05:31:32;40.90;;;33.00;;
8861;SDS011;4799;50.996;4.754;2024-01-11T05:33:57;44.53;;;34.73;;
8861;SDS011;4799;50.996;4.754;2024-01-11T05:36:23;42.83;;;33.90;;
8861;SDS011;4799;50.996;4.754;2024-01-11T05:38:49;41.63;;;33.73;;
8861;SDS011;4799;50.996;4.754;2024-01-11T05:41:14;44.27;;;33.40;;
8861;SDS011;4799;50.996;4.754;2024-01-11T05:43:40;39.53;;;31.87;;
8861;SDS011;4799;50.996;4.754;2024-01-11T05:46:06;41.67;;;33.17;;
8861;SDS011;4799;50.996;4.754;2024-01-11T05:48:32;42.17;;;33.37;;
8861;SDS011;4799;50.996;4.754;2024-01-11T05:50:58;41.67;;;34.10;;
8861;SDS011;4799;50.996;4.754;2024-01-11T05:53:25;43.83;;;34.93;;
8861;SDS011;4799;50.996;4.754;2024-01-11T05:55:52;42.10;;;33.87;;
8861;SDS011;4799;50.996;4.754;2024-01-11T05:58:18;41.43;;;33.07;;
8861;SDS011;4799;50.996;4.754;2024-01-11T06:00:45;39.87;;;32.60;;
8861;SDS011;4799;50.996;4.754;2024-01-11T06:03:14;38.30;;;32.47;;
8861;SDS011;4799;50.996;4.754;2024-01-11T06:05:40;41.87;;;34.17;;
8861;SDS011;4799;50.996;4.754;2024-01-11T06:08:06;40.40;;;33.13;;
8861;SDS011;4799;50.996;4.754;2024-01-11T06:10:32;38.50;;;31.63;;
8861;SDS011;4799;50.996;4.754;2024-01-11T06:12:58;41.63;;;33.07;;
8861;SDS011;4799;50.996;4.754;2024-01-11T06:15:24;38.93;;;32.70;;
8861;SDS011;4799;50.996;4.754;2024-01-11T06:17:50;38.77;;;32.80;;
8861;SDS011;4799;50.996;4.754;2024-01-11T06:20:15;42.57;;;33.80;;
8861;SDS011;4799;50.996;4.754;2024-01-11T06:22:41;45.50;;;34.87;;
8861;SDS011;4799;50.996;4.754;2024-01-11T06:25:07;43.83;;;33.70;;
8861;SDS011;4799;50.996;4.754;2024-01-11T06:27:33;40.23;;;32.43;;
8861;SDS011;4799;50.996;4.754;2024-01-11T06:29:59;41.43;;;33.53;;
8861;SDS011;4799;50.996;4.754;2024-01-11T06:32:25;45.33;;;34.80;;
8861;SDS011;4799;50.996;4.754;2024-01-11T06:34:50;46.73;;;35.47;;
8861;SDS011;4799;50.996;4.754;2024-01-11T06:37:16;43.63;;;35.97;;
8861;SDS011;4799;50.996;4.754;2024-01-11T06:39:42;41.30;;;33.53;;
8861;SDS011;4799;50.996;4.754;2024-01-11T06:42:08;41.90;;;35.17;;
8861;SDS011;4799;50.996;4.754;2024-01-11T06:44:33;45.50;;;36.57;;
8861;SDS011;4799;50.996;4.754;2024-01-11T06:46:59;42.33;;;35.07;;
8861;SDS011;4799;50.996;4.754;2024-01-11T06:49:26;42.00;;;33.00;;
8861;SDS011;4799;50.996;4.754;2024-01-11T06:51:52;42.97;;;33.83;;
8861;SDS011;4799;50.996;4.754;2024-01-11T06:54:18;41.17;;;32.87;;
8861;SDS011;4799;50.996;4.754;2024-01-11T06:56:44;43.90;;;35.37;;
8861;SDS011;4799;50.996;4.754;2024-01-11T06:59:09;41.67;;;32.60;;
8861;SDS011;4799;50.996;4.754;2024-01-11T07:01:35;47.20;;;36.23;;
8861;SDS011;4799;50.996;4.754;2024-01-11T07:04:01;44.53;;;34.63;;
8861;SDS011;4799;50.996;4.754;2024-01-11T07:06:27;41.23;;;33.37;;
8861;SDS011;4799;50.996;4.754;2024-01-11T07:08:52;42.03;;;33.77;;
8861;SDS011;4799;50.996;4.754;2024-01-11T07:11:18;42.73;;;33.97;;
8861;SDS011;4799;50.996;4.754;2024-01-11T07:13:44;40.97;;;33.60;;
8861;SDS011;4799;50.996;4.754;2024-01-11T07:16:10;44.53;;;34.03;;
8861;SDS011;4799;50.996;4.754;2024-01-11T07:18:36;44.73;;;33.57;;
8861;SDS011;4799;50.996;4.754;2024-01-11T07:21:01;40.67;;;33.17;;
8861;SDS011;4799;50.996;4.754;2024-01-11T07:23:27;39.00;;;32.77;;
8861;SDS011;4799;50.996;4.754;2024-01-11T07:25:53;44.57;;;35.77;;
8861;SDS011;4799;50.996;4.754;2024-01-11T07:28:18;43.63;;;35.87;;
8861;SDS011;4799;50.996;4.754;2024-01-11T07:30:50;47.97;;;37.60;;
8861;SDS011;4799;50.996;4.754;2024-01-11T07:33:16;49.57;;;38.93;;
8861;SDS011;4799;50.996;4.754;2024-01-11T07:35:42;48.77;;;39.00;;
8861;SDS011;4799;50.996;4.754;2024-01-11T07:38:08;48.30;;;37.63;;
8861;SDS011;4799;50.996;4.754;2024-01-11T07:40:34;46.60;;;37.73;;
8861;SDS011;4799;50.996;4.754;2024-01-11T07:42:59;46.90;;;36.97;;
8861;SDS011;4799;50.996;4.754;2024-01-11T07:45:25;47.27;;;36.97;;
8861;SDS011;4799;50.996;4.754;2024-01-11T07:47:51;46.87;;;37.27;;
8861;SDS011;4799;50.996;4.754;2024-01-11T07:50:16;45.60;;;35.77;;
8861;SDS011;4799;50.996;4.754;2024-01-11T07:52:42;43.63;;;34.17;;
8861;SDS011;4799;50.996;4.754;2024-01-11T07:55:08;45.33;;;33.97;;
8861;SDS011;4799;50.996;4.754;2024-01-11T07:57:39;46.33;;;35.00;;
8861;SDS011;4799;50.996;4.754;2024-01-11T08:00:05;47.70;;;37.03;;
8861;SDS011;4799;50.996;4.754;2024-01-11T08:02:34;46.03;;;36.90;;
8861;SDS011;4799;50.996;4.754;2024-01-11T08:05:00;44.50;;;36.23;;
8861;SDS011;4799;50.996;4.754;2024-01-11T08:07:26;45.37;;;36.90;;
8861;SDS011;4799;50.996;4.754;2024-01-11T08:09:53;52.53;;;40.47;;
8861;SDS011;4799;50.996;4.754;2024-01-11T08:12:19;44.87;;;36.53;;
8861;SDS011;4799;50.996;4.754;2024-01-11T08:14:45;48.17;;;37.33;;
8861;SDS011;4799;50.996;4.754;2024-01-11T08:17:12;45.03;;;36.37;;
8861;SDS011;4799;50.996;4.754;2024-01-11T08:19:39;45.83;;;37.73;;
8861;SDS011;4799;50.996;4.754;2024-01-11T08:22:05;47.97;;;38.67;;
8861;SDS011;4799;50.996;4.754;2024-01-11T08:24:31;49.83;;;37.63;;
8861;SDS011;4799;50.996;4.754;2024-01-11T08:26:57;48.27;;;38.47;;
8861;SDS011;4799;50.996;4.754;2024-01-11T08:29:23;46.77;;;37.73;;
8861;SDS011;4799;50.996;4.754;2024-01-11T08:31:49;44.60;;;37.10;;
8861;SDS011;4799;50.996;4.754;2024-01-11T08:34:15;51.27;;;39.10;;
8861;SDS011;4799;50.996;4.754;2024-01-11T08:36:41;48.80;;;39.30;;
8861;SDS011;4799;50.996;4.754;2024-01-11T08:39:07;47.67;;;38.23;;
8861;SDS011;4799;50.996;4.754;2024-01-11T08:41:37;47.60;;;39.07;;
8861;SDS011;4799;50.996;4.754;2024-01-11T08:44:03;47.77;;;40.03;;
8861;SDS011;4799;50.996;4.754;2024-01-11T08:46:33;47.00;;;39.00;;
8861;SDS011;4799;50.996;4.754;2024-01-11T08:49:02;49.47;;;41.33;;
8861;SDS011;4799;50.996;4.754;2024-01-11T08:51:29;48.43;;;39.03;;
8861;SDS011;4799;50.996;4.754;2024-01-11T08:53:55;49.30;;;40.33;;
8861;SDS011;4799;50.996;4.754;2024-01-11T08:56:21;51.03;;;41.80;;
8861;SDS011;4799;50.996;4.754;2024-01-11T08:58:47;51.67;;;40.73;;
8861;SDS011;4799;50.996;4.754;2024-01-11T09:01:13;48.53;;;40.93;;
8861;SDS011;4799;50.996;4.754;2024-01-11T09:03:40;46.80;;;38.17;;
8861;SDS011;4799;50.996;4.754;2024-01-11T09:06:05;45.17;;;38.73;;
8861;SDS011;4799;50.996;4.754;2024-01-11T09:08:31;48.27;;;39.40;;
8861;SDS011;4799;50.996;4.754;2024-01-11T09:10:57;49.00;;;40.97;;
8861;SDS011;4799;50.996;4.754;2024-01-11T09:13:24;48.60;;;40.00;;
8861;SDS011;4799;50.996;4.754;2024-01-11T09:15:51;50.20;;;40.07;;
8861;SDS011;4799;50.996;4.754;2024-01-11T09:18:17;43.10;;;36.37;;
8861;SDS011;4799;50.996;4.754;2024-01-11T09:20:43;46.43;;;36.37;;
8861;SDS011;4799;50.996;4.754;2024-01-11T09:23:09;47.83;;;37.70;;
8861;SDS011;4799;50.996;4.754;2024-01-11T09:25:35;47.27;;;38.17;;
8861;SDS011;4799;50.996;4.754;2024-01-11T09:28:00;48.40;;;41.83;;
8861;SDS011;4799;50.996;4.754;2024-01-11T09:30:26;43.95;;;38.92;;
8861;SDS011;4799;50.996;4.754;2024-01-11T09:32:52;43.17;;;36.50;;
8861;SDS011;4799;50.996;4.754;2024-01-11T09:35:18;46.90;;;36.00;;
8861;SDS011;4799;50.996;4.754;2024-01-11T09:37:44;40.77;;;34.80;;
8861;SDS011;4799;50.996;4.754;2024-01-11T09:40:11;44.23;;;35.80;;
8861;SDS011;4799;50.996;4.754;2024-01-11T09:42:38;40.87;;;35.00;;
8861;SDS011;4799;50.996;4.754;2024-01-11T09:45:07;42.87;;;36.10;;
8861;SDS011;4799;50.996;4.754;2024-01-11T09:47:35;41.03;;;33.40;;
8861;SDS011;4799;50.996;4.754;2024-01-11T09:50:05;41.20;;;34.13;;
8861;SDS011;4799;50.996;4.754;2024-01-11T09:52:33;42.63;;;35.53;;
8861;SDS011;4799;50.996;4.754;2024-01-11T09:55:00;41.80;;;34.93;;
8861;SDS011;4799;50.996;4.754;2024-01-11T09:57:30;41.40;;;35.43;;
8861;SDS011;4799;50.996;4.754;2024-01-11T09:59:57;50.20;;;40.93;;
8861;SDS011;4799;50.996;4.754;2024-01-11T10:02:23;47.03;;;38.53;;
8861;SDS011;4799;50.996;4.754;2024-01-11T10:04:53;43.40;;;35.83;;
8861;SDS011;4799;50.996;4.754;2024-01-11T10:07:22;44.67;;;35.23;;
8861;SDS011;4799;50.996;4.754;2024-01-11T10:09:49;41.37;;;34.73;;
8861;SDS011;4799;50.996;4.754;2024-01-11T10:12:17;40.67;;;34.50;;
8861;SDS011;4799;50.996;4.754;2024-01-11T10:14:45;44.50;;;34.43;;
8861;SDS011;4799;50.996;4.754;2024-01-11T10:17:12;40.20;;;35.37;;
8861;SDS011;4799;50.996;4.754;2024-01-11T10:19:38;37.97;;;32.53;;
8861;SDS011;4799;50.996;4.754;2024-01-11T10:22:04;39.33;;;32.77;;
8861;SDS011;4799;50.996;4.754;2024-01-11T10:24:30;42.70;;;33.30;;
8861;SDS011;4799;50.996;4.754;2024-01-11T10:26:56;38.90;;;33.60;;
8861;SDS011;4799;50.996;4.754;2024-01-11T10:29:32;41.53;;;34.70;;
8861;SDS011;4799;50.996;4.754;2024-01-11T10:31:58;43.83;;;35.70;;
8861;SDS011;4799;50.996;4.754;2024-01-11T10:34:24;39.47;;;33.73;;
8861;SDS011;4799;50.996;4.754;2024-01-11T10:36:50;39.87;;;32.37;;
8861;SDS011;4799;50.996;4.754;2024-01-11T10:39:16;37.80;;;32.50;;
8861;SDS011;4799;50.996;4.754;2024-01-11T10:41:49;39.20;;;31.63;;
8861;SDS011;4799;50.996;4.754;2024-01-11T10:44:20;38.13;;;31.40;;
8861;SDS011;4799;50.996;4.754;2024-01-11T10:46:47;37.13;;;30.40;;
8861;SDS011;4799;50.996;4.754;2024-01-11T10:49:16;35.97;;;30.90;;
8861;SDS011;4799;50.996;4.754;2024-01-11T10:51:53;35.37;;;29.73;;
8861;SDS011;4799;50.996;4.754;2024-01-11T10:54:26;36.10;;;29.13;;
8861;SDS011;4799;50.996;4.754;2024-01-11T10:56:53;36.47;;;30.93;;
8861;SDS011;4799;50.996;4.754;2024-01-11T10:59:21;34.23;;;30.37;;
8861;SDS011;4799;50.996;4.754;2024-01-11T11:01:52;34.97;;;29.50;;
8861;SDS011;4799;50.996;4.754;2024-01-11T11:04:20;35.07;;;29.90;;
8861;SDS011;4799;50.996;4.754;2024-01-11T11:06:49;32.07;;;28.07;;
8861;SDS011;4799;50.996;4.754;2024-01-11T11:09:20;33.70;;;30.00;;
8861;SDS011;4799;50.996;4.754;2024-01-11T11:11:47;37.40;;;30.77;;
8861;SDS011;4799;50.996;4.754;2024-01-11T11:14:14;37.87;;;30.30;;
8861;SDS011;4799;50.996;4.754;2024-01-11T11:16:40;36.03;;;30.30;;
8861;SDS011;4799;50.996;4.754;2024-01-11T11:19:07;32.97;;;28.43;;
8861;SDS011;4799;50.996;4.754;2024-01-11T11:21:41;35.20;;;28.17;;
8861;SDS011;4799;50.996;4.754;2024-01-11T11:24:08;32.90;;;26.97;;
8861;SDS011;4799;50.996;4.754;2024-01-11T11:26:34;32.33;;;26.73;;
8861;SDS011;4799;50.996;4.754;2024-01-11T11:29:01;34.23;;;27.33;;
8861;SDS011;4799;50.996;4.754;2024-01-11T11:31:37;32.20;;;27.57;;
8861;SDS011;4799;50.996;4.754;2024-01-11T11:34:10;30.90;;;26.20;;
8861;SDS011;4799;50.996;4.754;2024-01-11T11:36:42;29.83;;;26.43;;
8861;SDS011;4799;50.996;4.754;2024-01-11T11:39:11;34.77;;;27.00;;
8861;SDS011;4799;50.996;4.754;2024-01-11T11:41:38;31.70;;;27.07;;
8861;SDS011;4799;50.996;4.754;2024-01-11T11:44:05;31.17;;;26.77;;
8861;SDS011;4799;50.996;4.754;2024-01-11T11:46:31;30.73;;;26.70;;
8861;SDS011;4799;50.996;4.754;2024-01-11T11:48:58;30.70;;;25.67;;
8861;SDS011;4799;50.996;4.754;2024-01-11T11:51:25;32.97;;;26.90;;
8861;SDS011;4799;50.996;4.754;2024-01-11T11:53:51;35.23;;;28.27;;
8861;SDS011;4799;50.996;4.754;2024-01-11T11:56:18;29.77;;;26.53;;
8861;SDS011;4799;50.996;4.754;2024-01-11T11:58:46;29.77;;;25.27;;
8861;SDS011;4799;50.996;4.754;2024-01-11T12:01:13;32.23;;;25.30;;
8861;SDS011;4799;50.996;4.754;2024-01-11T12:03:40;31.53;;;26.13;;
8861;SDS011;4799;50.996;4.754;2024-01-11T12:06:07;29.87;;;24.60;;
8861;SDS011;4799;50.996;4.754;2024-01-11T12:08:35;29.60;;;24.37;;
8861;SDS011;4799;50.996;4.754;2024-01-11T12:11:02;29.43;;;24.40;;
8861;SDS011;4799;50.996;4.754;2024-01-11T12:13:28;28.83;;;24.77;;
8861;SDS011;4799;50.996;4.754;2024-01-11T12:15:56;29.03;;;24.43;;
8861;SDS011;4799;50.996;4.754;2024-01-11T12:18:22;29.17;;;24.33;;
8861;SDS011;4799;50.996;4.754;2024-01-11T12:20:48;28.60;;;24.87;;
8861;SDS011;4799;50.996;4.754;2024-01-11T12:23:13;26.53;;;22.90;;
8861;SDS011;4799;50.996;4.754;2024-01-11T12:25:40;25.63;;;22.33;;
8861;SDS011;4799;50.996;4.754;2024-01-11T12:28:06;27.17;;;23.63;;
8861;SDS011;4799;50.996;4.754;2024-01-11T12:30:32;28.00;;;24.17;;
8861;SDS011;4799;50.996;4.754;2024-01-11T12:32:59;27.87;;;24.27;;
8861;SDS011;4799;50.996;4.754;2024-01-11T12:35:29;27.23;;;22.70;;
8861;SDS011;4799;50.996;4.754;2024-01-11T12:37:59;27.20;;;22.57;;
8861;SDS011;4799;50.996;4.754;2024-01-11T12:40:34;25.57;;;21.60;;
8861;SDS011;4799;50.996;4.754;2024-01-11T12:43:02;26.07;;;22.43;;
8861;SDS011;4799;50.996;4.754;2024-01-11T12:45:28;29.50;;;23.60;;
8861;SDS011;4799;50.996;4.754;2024-01-11T12:47:57;29.20;;;23.30;;
8861;SDS011;4799;50.996;4.754;2024-01-11T12:50:27;23.97;;;21.10;;
8861;SDS011;4799;50.996;4.754;2024-01-11T12:53:06;26.43;;;21.90;;
8861;SDS011;4799;50.996;4.754;2024-01-11T12:55:33;24.37;;;20.67;;
8861;SDS011;4799;50.996;4.754;2024-01-11T12:58:04;24.27;;;21.40;;
8861;SDS011;4799;50.996;4.754;2024-01-11T13:00:30;23.37;;;20.87;;
8861;SDS011;4799;50.996;4.754;2024-01-11T13:02:56;24.57;;;21.20;;
8861;SDS011;4799;50.996;4.754;2024-01-11T13:05:22;23.70;;;19.67;;
8861;SDS011;4799;50.996;4.754;2024-01-11T13:07:48;22.63;;;20.23;;
8861;SDS011;4799;50.996;4.754;2024-01-11T13:10:15;23.57;;;19.33;;
8861;SDS011;4799;50.996;4.754;2024-01-11T13:12:42;21.63;;;18.60;;
8861;SDS011;4799;50.996;4.754;2024-01-11T13:15:07;23.47;;;19.57;;
8861;SDS011;4799;50.996;4.754;2024-01-11T13:17:33;22.53;;;18.73;;
8861;SDS011;4799;50.996;4.754;2024-01-11T13:19:59;21.27;;;18.77;;
8861;SDS011;4799;50.996;4.754;2024-01-11T13:22:26;23.23;;;19.43;;
8861;SDS011;4799;50.996;4.754;2024-01-11T13:24:52;23.63;;;19.87;;
8861;SDS011;4799;50.996;4.754;2024-01-11T13:27:18;24.07;;;19.83;;
8861;SDS011;4799;50.996;4.754;2024-01-11T13:29:43;22.70;;;20.30;;
8861;SDS011;4799;50.996;4.754;2024-01-11T13:32:09;23.43;;;20.93;;
8861;SDS011;4799;50.996;4.754;2024-01-11T13:34:36;23.93;;;20.23;;
8861;SDS011;4799;50.996;4.754;2024-01-11T13:37:02;24.03;;;19.40;;
8861;SDS011;4799;50.996;4.754;2024-01-11T13:39:28;21.67;;;19.07;;
8861;SDS011;4799;50.996;4.754;2024-01-11T13:41:54;22.23;;;18.23;;
8861;SDS011;4799;50.996;4.754;2024-01-11T13:44:20;21.27;;;17.43;;
8861;SDS011;4799;50.996;4.754;2024-01-11T13:46:45;20.13;;;17.53;;
8861;SDS011;4799;50.996;4.754;2024-01-11T13:49:11;21.57;;;16.60;;
8861;SDS011;4799;50.996;4.754;2024-01-11T13:51:37;20.47;;;17.53;;
8861;SDS011;4799;50.996;4.754;2024-01-11T13:54:03;19.43;;;17.33;;
8861;SDS011;4799;50.996;4.754;2024-01-11T13:56:29;22.33;;;18.03;;
8861;SDS011;4799;50.996;4.754;2024-01-11T13:58:55;22.90;;;17.47;;
8861;SDS011;4799;50.996;4.754;2024-01-11T14:01:21;19.17;;;17.00;;
8861;SDS011;4799;50.996;4.754;2024-01-11T14:03:47;21.90;;;18.43;;
8861;SDS011;4799;50.996;4.754;2024-01-11T14:06:13;21.17;;;17.80;;
8861;SDS011;4799;50.996;4.754;2024-01-11T14:08:38;23.17;;;18.50;;
8861;SDS011;4799;50.996;4.754;2024-01-11T14:11:04;24.33;;;20.43;;
8861;SDS011;4799;50.996;4.754;2024-01-11T14:13:30;26.53;;;22.37;;
8861;SDS011;4799;50.996;4.754;2024-01-11T14:15:56;26.57;;;22.70;;
8861;SDS011;4799;50.996;4.754;2024-01-11T14:18:22;25.40;;;21.13;;
8861;SDS011;4799;50.996;4.754;2024-01-11T14:20:48;25.10;;;21.00;;
8861;SDS011;4799;50.996;4.754;2024-01-11T14:23:14;23.87;;;20.30;;
8861;SDS011;4799;50.996;4.754;2024-01-11T14:25:39;21.77;;;19.20;;
8861;SDS011;4799;50.996;4.754;2024-01-11T14:28:06;23.87;;;20.43;;
8861;SDS011;4799;50.996;4.754;2024-01-11T14:30:31;24.83;;;19.93;;
8861;SDS011;4799;50.996;4.754;2024-01-11T14:32:58;24.80;;;19.80;;
8861;SDS011;4799;50.996;4.754;2024-01-11T14:35:24;27.37;;;21.50;;
8861;SDS011;4799;50.996;4.754;2024-01-11T14:37:50;25.73;;;21.73;;
8861;SDS011;4799;50.996;4.754;2024-01-11T14:40:17;25.80;;;20.60;;
8861;SDS011;4799;50.996;4.754;2024-01-11T14:42:43;26.07;;;21.87;;
8861;SDS011;4799;50.996;4.754;2024-01-11T14:45:09;25.67;;;21.17;;